Time;durP1;ratioP1;P1;durP2;ratioP2;P2;SDS_P1;SDS_P2;PMS_P1;PMS_P2;Temp;Humidity;BMP_temperature;BMP_pressure;BME280_temperature;BME280_humidity;BME280_pressure;Samples;Min_cycle;Max_cycle;Signal;HPM_P1;HPM_P2
2023/03/22 00:01:21;;;;;;;2.80;2.30;;;;;;;8.65;70.13;95426.44;6106470;23;20210;-83
2023/03/22 00:03:47;;;;;;;2.40;1.90;;;;;;;8.61;70.68;95430.28;6105937;23;20147;-82
2023/03/22 00:06:12;;;;;;;2.50;1.90;;;;;;;8.60;70.41;95433.00;6105309;23;20183;-83
2023/03/22 00:08:38;;;;;;;2.67;2.00;;;;;;;8.63;70.21;95428.34;6082889;23;20555;-82
2023/03/22 00:11:04;;;;;;;3.30;1.93;;;;;;;8.60;70.22;95433.00;6106040;23;20707;-83
2023/03/22 00:13:31;;;;;;;2.93;1.73;;;;;;;8.51;70.64;95426.88;6132646;23;20183;-82
2023/03/22 00:15:58;;;;;;;4.10;1.90;;;;;;;8.49;70.38;95419.25;6105486;23;20158;-82
2023/03/22 00:18:23;;;;;;;2.93;1.70;;;;;;;8.44;70.47;95428.38;6107568;23;20202;-82
2023/03/22 00:20:52;;;;;;;3.37;1.80;;;;;;;8.38;70.77;95423.75;6107775;23;20160;-82
2023/03/22 00:23:17;;;;;;;2.90;2.00;;;;;;;8.31;70.88;95423.47;6106975;23;20160;-82
2023/03/22 00:25:44;;;;;;;2.03;1.83;;;;;;;8.34;71.09;95418.00;6081468;23;20203;-82
2023/03/22 00:28:09;;;;;;;4.40;2.10;;;;;;;8.34;70.81;95417.19;6107695;23;20187;-82
2023/03/22 00:30:35;;;;;;;2.90;2.10;;;;;;;8.32;70.94;95414.75;6108621;23;20602;-82
2023/03/22 00:33:00;;;;;;;2.90;1.83;;;;;;;8.26;71.15;95402.34;6084750;23;20160;-81
2023/03/22 00:35:25;;;;;;;2.37;1.63;;;;;;;8.25;71.13;95405.91;6082722;23;20159;-81
2023/03/22 00:37:51;;;;;;;1.97;1.73;;;;;;;8.26;71.07;95398.94;6082938;23;20184;-82
2023/03/22 00:40:16;;;;;;;2.90;1.77;;;;;;;8.23;71.25;95400.84;6083290;23;20486;-82
2023/03/22 00:42:42;;;;;;;3.37;2.17;;;;;;;8.17;71.52;95398.00;6083179;23;20191;-81
2023/03/22 00:45:09;;;;;;;3.80;2.00;;;;;;;8.13;71.74;95394.88;6105544;23;20194;-82
2023/03/22 00:47:34;;;;;;;2.27;2.00;;;;;;;8.03;71.73;95388.84;6106790;23;20172;-82
2023/03/22 00:50:01;;;;;;;2.70;1.77;;;;;;;7.94;72.38;95390.50;6106636;23;20160;-82
2023/03/22 00:52:27;;;;;;;3.53;2.00;;;;;;;7.90;72.95;95380.56;6106743;23;20242;-82
2023/03/22 00:54:52;;;;;;;3.50;1.70;;;;;;;7.91;73.01;95377.03;6081706;23;20171;-80
2023/03/22 00:57:18;;;;;;;2.67;2.20;;;;;;;7.85;73.03;95373.19;6082683;23;20183;-82
2023/03/22 00:59:43;;;;;;;3.47;2.17;;;;;;;7.82;73.26;95370.06;6082664;23;20171;-82
2023/03/22 01:02:12;;;;;;;2.33;2.00;;;;;;;7.80;73.30;95366.81;6106817;23;20590;-82
2023/03/22 01:04:38;;;;;;;2.70;2.23;;;;;;;7.79;73.38;95365.19;6082871;23;20227;-83
2023/03/22 01:07:06;;;;;;;4.43;2.00;;;;;;;7.78;73.46;95369.53;6107271;23;20604;-82
2023/03/22 01:09:32;;;;;;;3.50;2.03;;;;;;;7.79;73.65;95355.66;6132644;23;20167;-81
2023/03/22 01:11:58;;;;;;;5.50;1.80;;;;;;;7.72;73.82;95353.75;6107216;23;20537;-81
2023/03/22 01:14:24;;;;;;;3.07;1.90;;;;;;;7.72;74.28;95351.16;6106714;23;20156;-81
2023/03/22 01:16:50;;;;;;;2.87;2.20;;;;;;;7.65;74.50;95346.53;6058985;23;20611;-82
2023/03/22 01:19:16;;;;;;;4.67;2.00;;;;;;;7.65;75.04;95345.72;6083964;23;20164;-82
2023/03/22 01:21:42;;;;;;;2.17;1.90;;;;;;;7.56;75.16;95347.34;6084744;23;20179;-82
2023/03/22 01:24:07;;;;;;;2.63;2.23;;;;;;;7.62;75.25;95343.41;6084292;23;20167;-81
2023/03/22 01:26:32;;;;;;;3.30;1.93;;;;;;;7.53;75.17;95336.47;6108235;23;20191;-82
2023/03/22 01:28:57;;;;;;;4.50;2.30;;;;;;;7.49;75.53;95337.66;6085393;23;20166;-82
2023/03/22 01:31:23;;;;;;;4.03;2.23;;;;;;;7.48;75.77;95336.03;6086192;23;20215;-82
2023/03/22 01:33:48;;;;;;;3.43;2.50;;;;;;;7.49;76.43;95338.47;6109772;23;20179;-82
2023/03/22 01:36:13;;;;;;;3.60;2.70;;;;;;;7.55;75.87;95343.13;6134187;23;20206;-82
2023/03/22 01:38:39;;;;;;;2.73;2.10;;;;;;;7.58;76.04;95342.03;6084732;23;20194;-82
2023/03/22 01:41:04;;;;;;;4.53;2.23;;;;;;;7.68;76.01;95345.44;6084072;23;20164;-81
2023/03/22 01:43:29;;;;;;;4.13;2.30;;;;;;;7.61;75.88;95345.19;6107624;23;20250;-82
2023/03/22 01:45:55;;;;;;;2.70;2.20;;;;;;;7.64;75.67;95342.31;6083095;23;20190;-81
2023/03/22 01:48:27;;;;;;;5.33;2.43;;;;;;;7.67;75.81;95336.88;6107373;23;20187;-82
2023/03/22 01:51:05;;;;;;;5.27;2.60;;;;;;;7.72;75.83;95344.22;6084532;23;20183;-82
2023/03/22 01:53:36;;;;;;;3.90;2.07;;;;;;;7.74;75.52;95341.50;6108357;23;20168;-81
2023/03/22 01:56:02;;;;;;;3.30;2.40;;;;;;;7.71;75.74;95342.59;6107664;23;20180;-81
2023/03/22 01:58:27;;;;;;;2.93;2.17;;;;;;;7.73;75.53;95335.50;6108064;23;20248;-81
2023/03/22 02:00:53;;;;;;;4.37;2.37;;;;;;;7.76;75.30;95337.00;6109415;23;20479;-81
2023/03/22 02:03:39;;;;;;;3.13;2.40;;;;;;;7.81;75.17;95335.66;6085034;23;20486;-81
2023/03/22 02:06:05;;;;;;;5.23;2.37;;;;;;;7.76;75.33;95334.41;6107703;23;20184;-82
2023/03/22 02:08:31;;;;;;;4.63;2.53;;;;;;;7.77;75.42;95333.47;6109339;23;20247;-82
2023/03/22 02:10:57;;;;;;;3.87;2.33;;;;;;;7.84;75.17;95326.81;6109891;23;20540;-82
2023/03/22 02:13:50;;;;;;;2.80;2.43;;;;;;;7.83;74.98;95326.00;6083551;23;20168;-82
2023/03/22 02:16:23;;;;;;;3.60;2.27;;;;;;;7.90;74.99;95323.69;6082685;23;20491;-82
2023/03/22 02:19:22;;;;;;;6.60;2.77;;;;;;;7.92;74.81;95321.78;6134763;23;20256;-82
2023/03/22 02:22:05;;;;;;;4.77;2.33;;;;;;;7.83;75.04;95320.00;6107306;23;20240;-83
2023/03/22 02:24:44;;;;;;;3.37;2.10;;;;;;;7.80;75.31;95328.03;6107120;23;20184;-81
2023/03/22 02:27:52;;;;;;;3.43;2.37;;;;;;;7.80;75.24;95320.28;6082488;23;20345;-82
2023/03/22 02:30:39;;;;;;;3.30;2.40;;;;;;;7.74;75.69;95318.25;6118876;23;20250;-83
2023/03/22 02:34:16;;;;;;;3.93;2.40;;;;;;;7.73;76.03;95314.03;6107714;23;20559;-82
2023/03/22 02:36:53;;;;;;;3.37;2.50;;;;;;;7.77;75.67;95310.19;5981920;23;20161;-82
2023/03/22 02:39:59;;;;;;;8.60;2.37;;;;;;;7.76;76.20;95308.56;6022663;23;20266;-82
2023/03/22 02:42:52;;;;;;;5.17;2.43;;;;;;;7.81;75.61;95303.81;6015347;23;20262;-82
2023/03/22 02:45:22;;;;;;;4.03;2.17;;;;;;;7.70;76.17;95307.38;6044086;23;20197;-82
2023/03/22 02:47:55;;;;;;;4.97;2.20;;;;;;;7.67;76.08;95310.19;6020539;23;20190;-82
2023/03/22 02:50:24;;;;;;;3.37;2.33;;;;;;;7.65;76.18;95309.53;6020013;23;20166;-82
2023/03/22 02:52:53;;;;;;;3.57;2.30;;;;;;;7.64;76.29;95310.47;5996749;23;20162;-82
2023/03/22 02:55:36;;;;;;;4.50;2.87;;;;;;;7.65;76.59;95312.94;5995329;23;20185;-82
2023/03/22 02:58:10;;;;;;;3.63;2.17;;;;;;;7.65;76.47;95309.53;6018450;23;20288;-82
2023/03/22 03:00:37;;;;;;;4.13;2.47;;;;;;;7.60;76.64;95307.38;6018998;23;20162;-82
2023/03/22 03:03:10;;;;;;;4.83;2.57;;;;;;;7.50;77.23;95308.28;6019725;23;20170;-82
2023/03/22 03:05:38;;;;;;;3.03;2.23;;;;;;;7.44;77.45;95317.41;6019522;23;20257;-82
2023/03/22 03:08:05;;;;;;;5.13;2.60;;;;;;;7.49;77.13;95317.81;6104725;23;20221;-82
2023/03/22 03:10:31;;;;;;;3.37;2.60;;;;;;;7.42;77.88;95323.63;6106100;23;20143;-82
2023/03/22 03:12:57;;;;;;;3.23;2.57;;;;;;;7.47;77.63;95321.47;6082027;23;20246;-82
2023/03/22 03:15:22;;;;;;;3.97;2.40;;;;;;;7.52;77.26;95317.56;6080827;23;20162;-81
2023/03/22 03:18:08;;;;;;;2.93;2.00;;;;;;;7.53;77.07;95313.19;6106610;23;20175;-82
2023/03/22 03:20:59;;;;;;;6.13;2.53;;;;;;;7.49;76.79;95310.06;6106666;23;20163;-82
2023/03/22 03:23:45;;;;;;;3.80;2.00;;;;;;;7.45;76.80;95310.47;6133325;23;20155;-82
2023/03/22 03:26:20;;;;;;;5.60;2.20;;;;;;;7.40;77.46;95308.28;6106394;23;20168;-82
2023/03/22 03:28:55;;;;;;;3.60;2.03;;;;;;;7.37;77.35;95306.78;6105371;23;20187;-83
2023/03/22 03:31:34;;;;;;;2.80;2.40;;;;;;;7.33;77.52;95314.91;6106817;23;20166;-82
2023/03/22 03:34:04;;;;;;;3.20;2.10;;;;;;;7.28;77.60;95309.34;6082659;23;20219;-82
2023/03/22 03:36:32;;;;;;;3.20;2.13;;;;;;;7.24;78.02;95307.97;6123333;23;20152;-80
2023/03/22 03:38:59;;;;;;;3.20;2.37;;;;;;;7.21;78.13;95303.91;6102442;23;20236;-80
2023/03/22 03:41:27;;;;;;;2.83;2.30;;;;;;;7.21;78.17;95301.31;6128259;23;20162;-80
2023/03/22 03:43:55;;;;;;;4.13;2.43;;;;;;;7.21;78.14;95297.91;6103981;23;20159;-80
2023/03/22 03:46:20;;;;;;;4.63;2.70;;;;;;;7.17;78.47;95307.69;6103587;23;20183;-81
2023/03/22 03:48:47;;;;;;;3.37;2.30;;;;;;;7.16;78.33;95310.44;6103358;23;20172;-81
2023/03/22 03:51:13;;;;;;;2.20;2.00;;;;;;;7.16;78.71;95302.69;6123239;23;20160;-81
2023/03/22 03:53:38;;;;;;;4.17;2.20;;;;;;;7.18;78.60;95300.78;6077091;23;20167;-82
2023/03/22 03:56:04;;;;;;;4.77;2.17;;;;;;;7.19;78.43;95295.47;6077350;23;20160;-81
2023/03/22 03:58:29;;;;;;;3.53;2.00;;;;;;;7.19;78.20;95294.66;6102082;23;20208;-81
2023/03/22 04:00:55;;;;;;;6.00;2.03;;;;;;;7.18;78.58;95296.44;6077731;23;20181;-81
2023/03/22 04:03:20;;;;;;;3.50;2.20;;;;;;;7.18;78.54;95293.03;6077324;23;20162;-83
2023/03/22 04:05:45;;;;;;;3.13;2.20;;;;;;;7.19;78.94;95289.50;6078000;23;20192;-82
2023/03/22 04:08:10;;;;;;;2.73;2.10;;;;;;;7.13;78.78;95290.81;6077876;23;20195;-81
2023/03/22 04:10:36;;;;;;;5.53;2.10;;;;;;;7.17;78.49;95292.22;6101149;23;20155;-81
2023/03/22 04:13:01;;;;;;;2.40;2.20;;;;;;;7.17;79.62;95288.81;6075649;23;20156;-81
2023/03/22 04:15:26;;;;;;;3.30;2.23;;;;;;;7.27;79.11;95289.66;6074785;23;20155;-82
2023/03/22 04:17:55;;;;;;;3.63;2.27;;;;;;;7.32;78.78;95282.28;6076865;23;20179;-81
2023/03/22 04:20:20;;;;;;;5.27;2.30;;;;;;;7.40;78.68;95285.03;6078272;23;20156;-81
2023/03/22 04:22:47;;;;;;;3.83;2.33;;;;;;;7.34;78.78;95283.00;6077204;23;20156;-81
2023/03/22 04:25:16;;;;;;;4.60;2.70;;;;;;;7.31;78.53;95284.06;6076205;23;20234;-82
2023/03/22 04:27:43;;;;;;;3.97;2.50;;;;;;;7.29;78.85;95285.16;6102167;23;20184;-81
2023/03/22 04:30:18;;;;;;;3.37;2.70;;;;;;;7.25;79.10;95284.63;6078563;23;20171;-82
2023/03/22 04:32:46;;;;;;;2.87;2.60;;;;;;;7.17;79.61;95287.03;6103514;23;20170;-82
2023/03/22 04:35:12;;;;;;;6.07;3.00;;;;;;;7.17;79.65;95281.88;6079311;23;20184;-82
2023/03/22 04:37:37;;;;;;;5.50;2.73;;;;;;;7.09;80.15;95279.97;6078897;23;20188;-81
2023/03/22 04:40:07;;;;;;;5.13;2.77;;;;;;;7.10;79.64;95280.78;6078974;23;20251;-81
2023/03/22 04:42:32;;;;;;;5.90;2.70;;;;;;;7.07;79.85;95276.69;6104149;23;20606;-82
2023/03/22 04:44:58;;;;;;;3.97;2.83;;;;;;;7.03;79.79;95272.72;6103216;23;20172;-82
2023/03/22 04:47:23;;;;;;;4.17;3.10;;;;;;;6.96;80.15;95269.03;6080882;23;20180;-82
2023/03/22 04:49:48;;;;;;;3.10;2.50;;;;;;;6.91;80.04;95273.81;6105071;23;20179;-81
2023/03/22 04:52:14;;;;;;;3.73;2.60;;;;;;;6.87;80.60;95271.59;6108914;23;20171;-81
2023/03/22 04:54:40;;;;;;;4.23;2.40;;;;;;;6.79;80.65;95259.34;6128864;23;20160;-81
2023/03/22 04:57:05;;;;;;;3.57;2.50;;;;;;;6.75;80.50;95265.72;6107816;23;20172;-82
2023/03/22 04:59:31;;;;;;;4.70;2.93;;;;;;;6.73;80.91;95263.28;6083378;23;20156;-82
2023/03/22 05:01:56;;;;;;;5.73;2.77;;;;;;;6.76;81.20;95257.84;6108085;23;20227;-82
2023/03/22 05:04:21;;;;;;;4.43;2.63;;;;;;;6.76;81.04;95255.28;6108170;23;20188;-82
2023/03/22 05:06:47;;;;;;;3.97;2.70;;;;;;;6.76;80.93;95252.69;6106906;23;20172;-82
2023/03/22 05:09:13;;;;;;;6.37;2.90;;;;;;;6.77;80.75;95256.09;6083720;23;20172;-82
2023/03/22 05:11:39;;;;;;;2.60;2.37;;;;;;;6.78;80.80;95249.97;6106959;23;20235;-82
2023/03/22 05:14:05;;;;;;;3.20;2.50;;;;;;;6.86;80.39;95246.75;6106955;23;20163;-82
2023/03/22 05:16:30;;;;;;;5.87;2.80;;;;;;;6.88;80.18;95252.56;6083696;23;20524;-82
2023/03/22 05:18:56;;;;;;;2.63;2.13;;;;;;;6.95;79.91;95248.53;6084187;23;20187;-83
2023/03/22 05:21:28;;;;;;;4.13;2.40;;;;;;;6.95;79.39;95251.09;6082711;23;20162;-83
2023/03/22 05:23:55;;;;;;;2.77;2.30;;;;;;;6.96;79.59;95243.22;6101280;23;20160;-80
2023/03/22 05:26:23;;;;;;;4.13;2.50;;;;;;;7.02;79.39;95257.38;6102719;23;20175;-82
2023/03/22 05:28:55;;;;;;;3.93;2.30;;;;;;;7.05;79.16;95255.34;6101760;23;20190;-82
2023/03/22 05:31:21;;;;;;;4.50;2.57;;;;;;;7.06;79.24;95259.53;6104874;23;20246;-82
2023/03/22 05:33:55;;;;;;;4.93;2.63;;;;;;;7.13;79.03;95261.59;6081171;23;20160;-82
2023/03/22 05:36:24;;;;;;;2.77;2.50;;;;;;;7.06;78.71;95263.91;6105497;23;20151;-81
2023/03/22 05:38:49;;;;;;;3.20;2.67;;;;;;;7.10;78.25;95260.94;6105940;23;20804;-81
2023/03/22 05:41:15;;;;;;;6.23;3.13;;;;;;;7.08;78.23;95257.69;6105782;23;20155;-82
2023/03/22 05:43:40;;;;;;;3.23;2.90;;;;;;;7.11;78.53;95256.59;6106345;23;20156;-83
2023/03/22 05:46:06;;;;;;;4.97;4.47;;;;;;;7.18;78.29;95259.44;6104810;23;20176;-82
2023/03/22 05:48:32;;;;;;;7.73;5.73;;;;;;;7.17;78.33;95266.38;6082345;23;20275;-82
2023/03/22 05:50:57;;;;;;;5.50;5.00;;;;;;;7.29;78.11;95269.66;6106235;23;20160;-82
2023/03/22 05:53:22;;;;;;;4.00;3.70;;;;;;;7.32;77.74;95267.59;6080986;23;20167;-82
2023/03/22 05:55:48;;;;;;;4.83;3.50;;;;;;;7.18;78.17;95267.19;6104730;23;20140;-83
2023/03/22 05:58:17;;;;;;;6.17;2.83;;;;;;;7.38;77.50;95268.84;6083485;23;20180;-82
2023/03/22 06:00:43;;;;;;;5.97;2.73;;;;;;;7.33;77.28;95276.16;6084736;23;20156;-81
2023/03/22 06:03:09;;;;;;;8.57;3.53;;;;;;;7.39;77.28;95278.22;6083918;23;20618;-82
2023/03/22 06:05:36;;;;;;;5.70;2.97;;;;;;;7.41;77.62;95275.50;6082534;23;20192;-82
2023/03/22 06:08:02;;;;;;;5.17;3.80;;;;;;;7.33;77.76;95283.91;6083253;23;20206;-82
2023/03/22 06:10:27;;;;;;;4.10;3.70;;;;;;;7.45;77.22;95276.88;6084802;23;20152;-81
2023/03/22 06:12:53;;;;;;;3.20;2.90;;;;;;;7.53;77.13;95277.84;6107091;23;20215;-83
2023/03/22 06:15:18;;;;;;;4.37;2.53;;;;;;;7.65;76.82;95275.94;6083359;23;20183;-82
2023/03/22 06:17:43;;;;;;;4.10;2.60;;;;;;;7.58;77.19;95275.66;6108464;23;20172;-80
2023/03/22 06:20:11;;;;;;;5.63;2.47;;;;;;;7.62;77.38;95282.19;6082142;23;20159;-81
2023/03/22 06:22:37;;;;;;;6.27;2.80;;;;;;;7.63;77.06;95278.66;6106570;23;20602;-81
2023/03/22 06:25:02;;;;;;;3.80;2.10;;;;;;;7.75;76.77;95275.94;6106663;23;20180;-81
2023/03/22 06:27:28;;;;;;;3.00;2.60;;;;;;;7.70;76.82;95278.13;6083976;23;20184;-80
2023/03/22 06:29:53;;;;;;;4.27;2.40;;;;;;;7.87;76.64;95282.59;6104788;23;20171;-81
2023/03/22 06:32:22;;;;;;;5.27;2.40;;;;;;;7.92;76.20;95285.56;6078857;23;20160;-80
2023/03/22 06:34:48;;;;;;;2.67;2.17;;;;;;;7.88;76.54;95289.41;6104814;23;20163;-81
2023/03/22 06:37:13;;;;;;;4.07;2.20;;;;;;;8.24;75.27;95278.31;6102907;23;20179;-81
2023/03/22 06:39:38;;;;;;;4.70;2.53;;;;;;;8.30;74.79;95278.69;6102308;23;20152;-82
2023/03/22 06:42:04;;;;;;;3.70;2.50;;;;;;;8.19;75.34;95274.50;6079520;23;20160;-82
2023/03/22 06:44:29;;;;;;;4.40;2.10;;;;;;;8.42;74.80;95277.63;6127428;23;20502;-80
2023/03/22 06:46:55;;;;;;;3.63;2.10;;;;;;;8.42;74.45;95281.03;6103500;23;20403;-81
2023/03/22 06:49:20;;;;;;;4.97;2.23;;;;;;;8.65;73.73;95286.66;6082512;23;20167;-82
2023/03/22 06:51:46;;;;;;;4.87;2.47;;;;;;;8.53;73.82;95277.44;6087773;23;20164;-82
2023/03/22 06:54:12;;;;;;;5.00;2.37;;;;;;;8.70;73.17;95274.13;6084869;23;20449;-83
2023/03/22 06:56:37;;;;;;;4.83;2.40;;;;;;;8.75;73.23;95277.09;6082162;23;20485;-83
2023/03/22 06:59:02;;;;;;;2.87;2.10;;;;;;;8.78;72.84;95276.00;6108001;23;20156;-82
2023/03/22 07:01:28;;;;;;;3.13;2.30;;;;;;;8.86;72.98;95270.91;6131806;23;20167;-83
2023/03/22 07:03:53;;;;;;;3.83;2.10;;;;;;;8.94;72.95;95271.00;6106729;23;20187;-83
2023/03/22 07:06:19;;;;;;;4.03;2.30;;;;;;;9.11;72.25;95264.25;6133511;23;20203;-83
2023/03/22 07:08:44;;;;;;;4.43;2.67;;;;;;;9.11;71.17;95272.00;6084771;23;20282;-83
2023/03/22 07:11:09;;;;;;;2.83;2.00;;;;;;;9.24;71.67;95272.47;6084756;23;20159;-83
2023/03/22 07:13:35;;;;;;;7.40;2.63;;;;;;;9.29;70.96;95270.25;6085000;23;20171;-82
2023/03/22 07:16:01;;;;;;;3.50;1.93;;;;;;;9.33;71.04;95274.19;6110783;23;20148;-82
2023/03/22 07:18:27;;;;;;;3.23;2.50;;;;;;;9.40;70.80;95274.41;6109714;23;20254;-83
2023/03/22 07:20:53;;;;;;;2.87;2.10;;;;;;;9.50;70.12;95282.13;6110149;23;20152;-83
2023/03/22 07:23:18;;;;;;;3.53;2.50;;;;;;;9.60;70.17;95278.50;6109297;23;20164;-82
2023/03/22 07:25:44;;;;;;;3.23;2.43;;;;;;;9.71;69.43;95279.22;6082969;23;20179;-83
2023/03/22 07:28:12;;;;;;;4.17;1.90;;;;;;;9.75;69.73;95286.56;6107233;23;20190;-83
2023/03/22 07:30:38;;;;;;;3.07;1.90;;;;;;;9.83;69.52;95278.06;6081821;23;20184;-83
2023/03/22 07:33:06;;;;;;;2.87;2.00;;;;;;;9.86;69.30;95293.31;6106654;23;20267;-81
2023/03/22 07:35:31;;;;;;;3.83;2.00;;;;;;;9.88;68.97;95291.38;6080072;23;20633;-82
2023/03/22 07:37:57;;;;;;;4.37;2.23;;;;;;;9.94;68.66;95286.41;6081799;23;20180;-80
2023/03/22 07:40:23;;;;;;;2.93;2.07;;;;;;;10.20;67.68;95281.25;6106693;23;20694;-82
2023/03/22 07:42:49;;;;;;;3.90;1.83;;;;;;;10.23;67.99;95287.94;6105782;23;20160;-83
2023/03/22 07:45:15;;;;;;;3.23;2.30;;;;;;;10.30;66.73;95288.97;6105141;23;20167;-83
2023/03/22 07:47:41;;;;;;;4.37;2.43;;;;;;;10.41;67.05;95283.53;6082185;23;20512;-82
2023/03/22 07:50:08;;;;;;;4.13;2.10;;;;;;;10.36;67.34;95275.41;6107401;23;20166;-82
2023/03/22 07:52:33;;;;;;;4.20;2.17;;;;;;;10.58;66.39;95283.63;6103139;23;20164;-81
2023/03/22 07:54:58;;;;;;;3.83;1.77;;;;;;;10.69;66.06;95280.75;6077585;23;20155;-83
2023/03/22 07:57:24;;;;;;;2.40;1.77;;;;;;;10.66;66.04;95279.28;6129586;23;20238;-83
2023/03/22 07:59:49;;;;;;;3.47;2.00;;;;;;;10.76;66.30;95281.78;6105111;23;20156;-83
2023/03/22 08:02:14;;;;;;;3.73;1.73;;;;;;;10.90;65.52;95281.19;6083562;23;20175;-83
2023/03/22 08:04:40;;;;;;;2.73;1.77;;;;;;;11.04;65.61;95287.56;6082984;23;20160;-80
2023/03/22 08:20:59;;;;;;;2.10;1.00;;;;;;;11.29;63.27;95296.28;6096917;23;20321;-77
2023/03/22 09:53:12;;;;;;;1.27;0.70;;;;;;;14.85;49.90;95236.88;6157539;23;20210;-77
2023/03/22 11:18:17;;;;;;;0.80;0.70;;;;;;;16.80;40.08;95222.59;6089571;23;20635;-81
2023/03/22 11:21:22;;;;;;;1.20;0.70;;;;;;;16.85;39.15;95214.94;6067770;23;20195;-82
2023/03/22 13:08:19;;;;;;;;;;;;;;;;;;;;;
2023/03/22 13:18:02;;;;;;;1.17;0.75;;;;;;;16.86;36.90;95131.84;6040869;23;20208;-82
2023/03/22 13:51:57;;;;;;;2.88;0.63;;;;;;;17.98;37.04;95094.47;5878649;24;20227;-79
2023/03/22 13:54:51;;;;;;;0.80;0.80;;;;;;;18.10;36.06;95082.31;5855027;24;20185;-81
2023/03/22 13:57:48;;;;;;;2.25;0.70;;;;;;;18.27;35.88;95083.47;5874879;24;20205;-79
2023/03/22 14:00:28;;;;;;;2.92;0.70;;;;;;;18.20;35.75;95087.97;5853910;24;20178;-79
2023/03/22 14:02:54;;;;;;;1.98;0.90;;;;;;;18.27;35.17;95078.22;5874061;24;20169;-78
2023/03/22 14:05:22;;;;;;;1.73;0.68;;;;;;;18.25;35.96;95088.16;5871485;24;20508;-79
2023/03/22 14:07:55;;;;;;;0.95;0.70;;;;;;;18.14;36.10;95078.28;5873826;24;20301;-79
2023/03/22 14:10:42;;;;;;;0.90;0.88;;;;;;;17.63;36.28;95084.16;5874805;24;20173;-79
2023/03/22 14:13:26;;;;;;;1.83;0.90;;;;;;;17.41;37.33;95082.75;5876114;24;20178;-80
2023/03/22 14:16:05;;;;;;;1.00;1.00;;;;;;;17.81;36.61;95076.50;5873960;24;20505;-79
2023/03/22 14:18:33;;;;;;;1.00;0.90;;;;;;;17.75;37.05;95079.13;5973015;23;20218;-78
2023/03/22 14:21:02;;;;;;;1.33;0.98;;;;;;;17.48;37.58;95084.34;6099383;23;20160;-79
2023/03/22 14:23:35;;;;;;;1.90;1.00;;;;;;;17.67;37.86;95077.50;6075324;23;20169;-80
2023/03/22 14:26:28;;;;;;;1.15;0.90;;;;;;;17.25;37.59;95081.31;6074322;23;20161;-78
2023/03/22 14:28:55;;;;;;;1.35;0.93;;;;;;;17.33;38.39;95072.44;6075434;23;20184;-83
2023/03/22 14:31:24;;;;;;;0.95;0.90;;;;;;;17.16;38.05;95075.44;6076323;23;20234;-82
2023/03/22 14:33:51;;;;;;;1.80;1.05;;;;;;;17.47;38.65;95087.16;6076657;23;20165;-82
2023/03/22 14:36:19;;;;;;;1.60;1.35;;;;;;;17.32;38.27;95068.22;6074915;23;20542;-82
2023/03/22 14:38:47;;;;;;;1.27;0.80;;;;;;;17.32;37.89;95070.81;6101515;23;20282;-78
2023/03/22 14:41:20;;;;;;;1.75;0.90;;;;;;;17.21;38.07;95072.19;6076758;23;20171;-82
2023/03/22 14:43:48;;;;;;;1.67;1.10;;;;;;;16.94;38.21;95061.66;6079178;23;20172;-83
2023/03/22 14:46:25;;;;;;;2.10;1.00;;;;;;;17.05;38.80;95067.34;6104102;23;20279;-84
2023/03/22 14:48:57;;;;;;;1.63;1.00;;;;;;;16.81;38.62;95063.47;6128950;23;20175;-85
2023/03/22 14:51:33;;;;;;;1.58;1.00;;;;;;;16.97;38.90;95065.72;6106138;23;20186;-84
2023/03/22 14:53:59;;;;;;;1.10;0.98;;;;;;;16.76;39.37;95066.66;6084010;23;20231;-84
2023/03/22 14:56:32;;;;;;;2.33;1.20;;;;;;;16.90;39.06;95059.66;6080311;23;20172;-83
2023/03/22 14:58:59;;;;;;;1.38;1.10;;;;;;;16.78;39.47;95071.69;6080984;23;20186;-83
2023/03/22 15:01:35;;;;;;;1.60;0.90;;;;;;;16.67;39.35;95066.00;6103784;23;20912;-84
2023/03/22 15:04:04;;;;;;;2.40;1.08;;;;;;;16.52;39.85;95067.97;6080097;23;20163;-83
2023/03/22 15:14:22;;;;;;;2.67;1.15;;;;;;;16.10;40.64;95048.03;6159465;23;20191;-82
2023/03/22 15:42:52;;;;;;;;;;;;;;;;;;;;;
2023/03/22 15:53:01;;;;;;;;;;;;;;;;;;;;;
2023/03/22 16:16:28;;;;;;;;;;;;;;;;;;;;;
2023/03/22 16:23:04;;;;;;;2.08;1.60;;;;;;;16.10;43.43;95035.75;6085159;23;20178;-83
2023/03/22 16:25:50;;;;;;;2.42;1.80;;;;;;;16.01;43.85;95038.72;6100754;23;20175;-83
2023/03/22 16:28:27;;;;;;;5.25;3.38;;;;;;;15.83;43.32;95042.63;6076559;23;20191;-81
2023/03/22 16:30:58;;;;;;;5.93;3.10;;;;;;;15.88;43.83;95031.56;6076126;23;20167;-82
2023/03/22 16:45:24;;;;;;;1.98;1.30;;;;;;;15.73;44.01;95025.66;5928848;24;20175;-84
2023/03/22 16:51:23;;;;;;;1.20;1.10;;;;;;;15.61;44.49;95022.75;5885163;24;20181;-85
2023/03/22 16:54:48;;;;;;;2.55;1.52;;;;;;;15.67;43.96;95031.66;5880477;24;20157;-84
2023/03/22 16:57:44;;;;;;;3.80;1.20;;;;;;;15.40;43.42;95031.44;5877627;24;20201;-82
2023/03/22 17:03:23;;;;;;;1.77;1.35;;;;;;;15.42;43.09;95039.09;5874702;24;20168;-80
2023/03/22 17:05:59;;;;;;;3.57;1.97;;;;;;;15.33;43.53;95041.03;5877401;24;20230;-85
2023/03/22 18:34:35;;;;;;;2.20;1.93;;;;;;;13.02;52.23;95073.56;6145162;23;20214;-80
2023/03/22 18:37:17;;;;;;;3.17;1.60;;;;;;;12.98;52.40;95074.06;6107555;23;20465;-83
2023/03/22 19:05:36;;;;;;;2.10;1.83;;;;;;;12.64;53.49;95083.09;6040391;23;20216;-84
2023/03/22 19:34:28;;;;;;;12.27;7.47;;;;;;;12.28;54.98;95068.94;6146751;23;20206;-80
2023/03/22 19:43:14;;;;;;;;;;;;;;;;;;;;;
2023/03/22 19:53:28;;;;;;;3.43;2.10;;;;;;;12.16;55.75;95071.09;5900011;24;20259;-84
2023/03/22 20:03:52;;;;;;;;;;;;;;;;;;;;;
2023/03/22 20:17:40;;;;;;;;;;;;;;;;;;;;;
2023/03/22 20:21:03;;;;;;;2.00;1.73;;;;;;;12.13;55.75;95061.03;5604793;25;20277;-85
2023/03/22 20:27:07;;;;;;;8.33;6.07;;;;;;;12.09;55.75;95054.53;5659353;25;20242;-85
2023/03/22 20:44:47;;;;;;;2.30;1.67;;;;;;;12.08;55.26;95056.34;5623680;25;20308;-86
2023/03/22 20:51:21;;;;;;;;;;;;;;;;;;;;;
2023/03/22 21:21:22;;;;;;;;;;;;;;;;;;;;;
2023/03/22 21:50:06;;;;;;;1.50;1.20;;;;;;;12.51;49.62;95098.47;6015542;23;20299;-84
2023/03/22 22:24:27;;;;;;;;;;;;;;;;;;;;;
2023/03/22 22:44:46;;;;;;;0.93;0.83;;;;;;;12.26;53.17;95065.69;6159991;23;20190;-86
2023/03/22 22:54:37;;;;;;;2.70;1.10;;;;;;;12.45;52.37;95062.66;6100288;23;20165;-85
2023/03/22 23:00:03;;;;;;;1.50;1.00;;;;;;;12.40;52.24;95051.97;6167579;23;20175;-85
2023/03/22 23:02:51;;;;;;;;;;;;;;;;;;;;;
2023/03/22 23:12:40;;;;;;;1.23;1.20;;;;;;;12.43;52.30;95055.03;6071675;23;20179;-84
2023/03/22 23:15:46;;;;;;;;;;;;;;;;;;;;;
2023/03/22 23:21:54;;;;;;;2.30;1.10;;;;;;;12.55;52.36;95046.84;6069599;23;20271;-85
2023/03/22 23:24:48;;;;;;;4.63;1.13;;;;;;;12.49;52.34;95043.13;6046812;23;20224;-82
2023/03/22 23:31:28;;;;;;;2.50;1.20;;;;;;;12.52;52.53;95024.56;6017394;23;20189;-86
2023/03/22 23:35:07;;;;;;;1.70;1.00;;;;;;;12.47;53.08;95027.69;5962054;24;20175;-82
2023/03/22 23:45:13;;;;;;;1.20;1.10;;;;;;;12.38;53.59;95007.06;5881070;24;20162;-85
2023/03/22 23:58:19;;;;;;;1.73;1.00;;;;;;;12.27;54.50;95002.22;5821240;24;20758;-84
